Time;durP1;ratioP1;P1;durP2;ratioP2;P2;SDS_P1;SDS_P2;PMS_P1;PMS_P2;Temp;Humidity;BMP_temperature;BMP_pressure;BME280_temperature;BME280_humidity;BME280_pressure;Samples;Min_cycle;Max_cycle;Signal;HPM_P1;HPM_P2
2022/06/17 00:00:11;;;;;;;16.23;11.55;;;13.00;99.90;;;;;;4847012;29;20052;-93
2022/06/17 00:02:37;;;;;;;14.43;10.73;;;13.00;99.90;;;;;;4861455;29;20048;-92
2022/06/17 00:05:03;;;;;;;16.35;12.85;;;13.00;99.90;;;;;;4843885;29;20055;-92
2022/06/17 00:07:29;;;;;;;18.02;12.45;;;13.00;99.90;;;;;;4860231;29;20131;-92
2022/06/17 00:09:55;;;;;;;14.13;11.02;;;12.90;99.90;;;;;;4845079;29;20181;-92
2022/06/17 00:12:21;;;;;;;12.85;10.63;;;12.90;99.90;;;;;;4844367;29;20557;-92
2022/06/17 00:17:31;;;;;;;16.23;13.02;;;12.90;99.90;;;;;;4859624;29;20080;-92
2022/06/17 00:19:57;;;;;;;14.48;12.85;;;12.90;99.90;;;;;;4844579;29;20144;-92
2022/06/17 00:22:25;;;;;;;19.45;13.75;;;12.90;99.90;;;;;;4844460;29;20088;-93
2022/06/17 00:24:52;;;;;;;15.82;12.82;;;12.90;99.90;;;;;;4845874;29;20056;-92
2022/06/17 00:27:18;;;;;;;16.52;11.77;;;12.80;99.90;;;;;;4844431;29;20572;-92
2022/06/17 00:29:44;;;;;;;15.73;12.55;;;12.80;99.90;;;;;;4845118;29;20045;-92
2022/06/17 00:32:10;;;;;;;15.50;11.77;;;12.80;99.90;;;;;;4844194;29;20056;-93
2022/06/17 00:34:36;;;;;;;15.25;12.65;;;12.70;99.90;;;;;;4845067;29;20065;-92
2022/06/17 00:37:03;;;;;;;13.38;11.20;;;12.80;99.90;;;;;;4845236;29;20048;-92
2022/06/17 00:39:32;;;;;;;11.00;7.88;;;12.70;99.90;;;;;;4843245;29;20049;-92
2022/06/17 00:42:08;;;;;;;10.57;7.72;;;12.70;99.90;;;;;;4844378;29;20045;-92
2022/06/17 00:44:54;;;;;;;12.57;10.45;;;12.70;99.90;;;;;;4843439;29;20048;-92
2022/06/17 00:47:26;;;;;;;13.93;11.73;;;12.60;99.90;;;;;;4844207;29;20127;-92
2022/06/17 00:50:01;;;;;;;15.75;13.75;;;12.50;99.90;;;;;;4843840;29;20065;-92
2022/06/17 00:52:34;;;;;;;16.85;11.30;;;12.50;99.90;;;;;;4844305;29;20053;-92
2022/06/17 00:55:13;;;;;;;11.07;9.32;;;12.50;99.90;;;;;;4844213;29;20045;-91
2022/06/17 00:57:42;;;;;;;13.88;11.55;;;12.50;99.90;;;;;;4844636;29;20052;-91
2022/06/17 01:00:07;;;;;;;14.82;11.85;;;12.40;99.90;;;;;;4844841;29;20067;-92
2022/06/17 01:02:39;;;;;;;16.67;12.90;;;12.40;99.90;;;;;;4863139;29;20045;-92
2022/06/17 01:05:05;;;;;;;15.18;12.05;;;12.50;99.90;;;;;;4847056;29;20053;-90
2022/06/17 01:07:37;;;;;;;18.67;12.73;;;12.40;99.90;;;;;;4862692;29;20045;-92
2022/06/17 01:10:09;;;;;;;16.25;13.63;;;12.50;99.90;;;;;;4863131;29;20136;-92
2022/06/17 01:12:51;;;;;;;19.88;14.07;;;12.50;99.90;;;;;;4847873;29;20055;-92
2022/06/17 01:15:20;;;;;;;14.73;12.85;;;12.50;99.90;;;;;;4862434;29;20520;-95
2022/06/17 01:17:48;;;;;;;20.27;14.45;;;12.50;99.90;;;;;;4863090;29;20041;-94
2022/06/17 01:20:15;;;;;;;15.68;13.63;;;12.60;99.90;;;;;;4862544;29;20141;-94
2022/06/17 01:22:45;;;;;;;16.90;14.30;;;12.60;99.90;;;;;;4862518;29;20112;-92
2022/06/17 01:25:16;;;;;;;17.45;13.27;;;12.60;99.90;;;;;;4847410;29;20063;-92
2022/06/17 01:27:46;;;;;;;15.40;11.57;;;12.60;99.90;;;;;;4847370;29;20501;-92
2022/06/17 01:30:18;;;;;;;16.70;12.88;;;12.60;99.90;;;;;;4862555;29;20492;-92
2022/06/17 01:32:51;;;;;;;18.02;13.48;;;12.60;99.90;;;;;;4862657;29;20488;-92
2022/06/17 01:35:20;;;;;;;16.05;12.23;;;12.50;99.90;;;;;;4846588;29;20544;-92
2022/06/17 01:37:45;;;;;;;12.85;11.20;;;12.60;99.90;;;;;;4863299;29;20507;-92
2022/06/17 01:40:12;;;;;;;16.48;12.35;;;12.50;99.90;;;;;;4847414;29;20053;-92
2022/06/17 01:42:39;;;;;;;17.30;12.40;;;12.50;99.90;;;;;;4862759;29;20049;-93
2022/06/17 01:45:07;;;;;;;13.32;10.90;;;12.50;99.90;;;;;;4864525;29;20056;-93
2022/06/17 01:47:34;;;;;;;18.40;11.50;;;12.50;99.90;;;;;;4847875;29;20386;-92
2022/06/17 01:50:07;;;;;;;19.70;14.55;;;12.50;99.90;;;;;;4862082;29;20049;-92
2022/06/17 01:52:38;;;;;;;17.25;13.10;;;12.50;99.90;;;;;;4862591;29;20053;-91
2022/06/17 01:55:07;;;;;;;14.77;10.85;;;12.50;99.90;;;;;;4862633;29;20049;-93
2022/06/17 01:57:45;;;;;;;18.45;13.57;;;12.50;99.90;;;;;;4846777;29;20063;-92
2022/06/17 02:00:14;;;;;;;15.93;12.75;;;12.50;99.90;;;;;;4846857;29;20513;-91
2022/06/17 02:02:41;;;;;;;12.52;11.23;;;12.50;99.90;;;;;;4849118;29;20045;-91
2022/06/17 02:05:09;;;;;;;12.13;10.10;;;12.50;99.90;;;;;;4861176;29;20060;-91
2022/06/17 02:07:41;;;;;;;14.32;11.73;;;12.50;99.90;;;;;;4862731;29;20070;-91
2022/06/17 02:10:08;;;;;;;16.50;11.98;;;12.40;99.90;;;;;;4846239;29;20080;-91
2022/06/17 02:12:34;;;;;;;17.65;12.60;;;12.60;99.90;;;;;;4846825;29;20063;-92
2022/06/17 02:15:00;;;;;;;17.60;12.52;;;12.40;99.90;;;;;;4862125;29;20139;-92
2022/06/17 02:17:30;;;;;;;15.07;12.45;;;12.50;99.90;;;;;;4861585;29;20188;-91
2022/06/17 02:19:57;;;;;;;13.55;12.15;;;12.40;99.90;;;;;;4861914;29;20103;-91
2022/06/17 02:22:25;;;;;;;15.73;12.18;;;12.40;99.90;;;;;;4862482;29;20102;-92
2022/06/17 02:24:55;;;;;;;17.58;12.45;;;12.40;99.90;;;;;;4861666;29;20045;-92
2022/06/17 02:27:22;;;;;;;16.20;12.02;;;12.40;99.90;;;;;;4862641;29;20045;-92
2022/06/17 02:29:49;;;;;;;16.73;12.45;;;12.40;99.90;;;;;;4862194;29;20189;-91
2022/06/17 02:32:16;;;;;;;14.55;11.95;;;12.30;99.90;;;;;;4862348;29;20064;-91
2022/06/17 02:35:00;;;;;;;16.35;11.77;;;12.30;99.90;;;;;;4868635;29;20049;-91
2022/06/17 02:37:28;;;;;;;17.70;13.45;;;12.30;99.90;;;;;;4855695;29;20053;-91
2022/06/17 02:39:57;;;;;;;15.93;11.80;;;12.20;99.90;;;;;;4872105;29;20061;-91
2022/06/17 02:42:38;;;;;;;13.90;12.43;;;12.30;99.90;;;;;;4871663;29;20049;-91
2022/06/17 02:45:14;;;;;;;16.20;13.25;;;12.20;99.90;;;;;;4868093;29;20057;-91
2022/06/17 02:47:40;;;;;;;16.25;13.38;;;12.20;99.90;;;;;;4872315;29;20052;-92
2022/06/17 02:50:07;;;;;;;19.08;14.55;;;12.20;99.90;;;;;;4873877;29;20064;-92
2022/06/17 02:52:36;;;;;;;17.52;14.85;;;12.20;99.90;;;;;;4872436;29;20199;-91
2022/06/17 02:55:12;;;;;;;19.98;15.25;;;12.20;99.90;;;;;;4873807;29;20406;-91
2022/06/17 02:57:39;;;;;;;19.05;14.48;;;12.10;99.90;;;;;;4859969;29;20044;-91
2022/06/17 03:00:14;;;;;;;16.08;13.63;;;12.10;99.90;;;;;;4856818;29;20183;-93
2022/06/17 03:02:49;;;;;;;16.65;13.63;;;12.10;99.90;;;;;;4862324;29;20049;-91
2022/06/17 03:05:17;;;;;;;17.05;13.82;;;12.10;99.90;;;;;;4860320;29;20431;-91
2022/06/17 03:07:43;;;;;;;17.33;13.38;;;12.10;99.90;;;;;;4859003;29;20256;-92
2022/06/17 03:10:16;;;;;;;17.77;13.77;;;12.10;99.90;;;;;;4846989;29;20052;-92
2022/06/17 03:12:44;;;;;;;16.17;13.63;;;12.10;99.90;;;;;;4845708;29;20045;-92
2022/06/17 03:15:15;;;;;;;17.33;14.27;;;12.10;99.90;;;;;;4845005;29;20059;-91
2022/06/17 03:17:43;;;;;;;17.10;14.70;;;12.10;99.90;;;;;;4845750;29;20052;-92
2022/06/17 03:20:15;;;;;;;18.35;16.30;;;12.10;99.90;;;;;;4844764;29;20397;-93
2022/06/17 03:22:42;;;;;;;18.67;16.65;;;12.20;99.90;;;;;;4845931;29;20049;-93
2022/06/17 03:25:12;;;;;;;22.25;17.42;;;12.20;99.90;;;;;;4845253;29;20053;-92
2022/06/17 03:27:46;;;;;;;19.58;16.73;;;12.20;99.90;;;;;;4844729;29;20553;-92
2022/06/17 03:30:19;;;;;;;19.85;15.15;;;12.30;99.90;;;;;;4845630;29;20143;-92
2022/06/17 03:32:52;;;;;;;20.38;15.57;;;12.40;99.90;;;;;;4847455;29;20124;-92
2022/06/17 03:35:22;;;;;;;18.90;15.25;;;12.50;99.90;;;;;;4844585;29;20397;-92
2022/06/17 03:38:01;;;;;;;17.67;15.13;;;12.60;99.90;;;;;;4845527;29;20049;-92
2022/06/17 03:40:32;;;;;;;20.63;16.10;;;12.60;99.90;;;;;;4846511;29;20436;-93
2022/06/17 03:43:05;;;;;;;24.05;16.02;;;12.70;99.90;;;;;;4856614;29;20049;-92
2022/06/17 03:45:44;;;;;;;17.13;15.05;;;12.70;99.90;;;;;;4865339;29;20045;-92
2022/06/17 03:48:23;;;;;;;19.58;14.38;;;12.80;99.90;;;;;;4863619;29;20061;-92
2022/06/17 03:50:49;;;;;;;18.83;14.02;;;12.90;99.90;;;;;;4864258;29;20037;-92
2022/06/17 03:53:25;;;;;;;19.65;14.35;;;12.90;99.90;;;;;;4863277;29;20048;-92
2022/06/17 03:55:52;;;;;;;17.10;13.50;;;12.90;99.90;;;;;;4862906;29;20076;-92
2022/06/17 03:58:19;;;;;;;13.38;11.20;;;13.00;99.90;;;;;;4863557;29;20053;-92
2022/06/17 04:00:53;;;;;;;17.25;12.32;;;13.10;99.90;;;;;;4863250;29;20144;-92
2022/06/17 04:03:24;;;;;;;15.88;11.68;;;13.10;99.90;;;;;;4864826;29;20064;-92
2022/06/17 04:05:59;;;;;;;16.65;11.63;;;13.20;99.90;;;;;;4864623;29;20453;-92
2022/06/17 04:08:25;;;;;;;15.57;10.82;;;13.30;99.90;;;;;;4864427;29;20040;-92
2022/06/17 04:10:51;;;;;;;19.63;11.45;;;13.40;99.90;;;;;;4863132;29;20107;-92
2022/06/17 04:13:22;;;;;;;13.77;10.25;;;13.40;99.90;;;;;;4866124;29;20056;-91
2022/06/17 04:16:02;;;;;;;17.83;10.05;;;13.60;99.90;;;;;;4867090;29;20055;-92
2022/06/17 04:18:31;;;;;;;14.38;9.73;;;13.70;99.90;;;;;;4876551;29;20045;-90
2022/06/17 04:20:57;;;;;;;14.25;9.65;;;13.90;99.90;;;;;;4844293;29;20080;-91
2022/06/17 04:23:26;;;;;;;12.57;8.50;;;14.00;99.90;;;;;;4843900;29;20049;-91
2022/06/17 04:25:59;;;;;;;13.68;8.88;;;14.10;99.90;;;;;;4843905;29;20064;-92
2022/06/17 04:28:30;;;;;;;16.70;8.77;;;14.20;99.90;;;;;;4844417;29;20057;-92
2022/06/17 04:31:00;;;;;;;10.82;7.45;;;14.30;99.90;;;;;;4843835;29;20053;-91
2022/06/17 04:33:31;;;;;;;14.13;6.90;;;14.40;99.90;;;;;;4845231;29;20045;-91
2022/06/17 04:36:01;;;;;;;11.20;6.90;;;14.50;99.90;;;;;;4847263;29;20200;-92
2022/06/17 04:38:29;;;;;;;13.80;7.15;;;14.40;99.90;;;;;;4847995;29;20156;-92
2022/06/17 04:41:00;;;;;;;10.23;6.75;;;14.60;99.90;;;;;;4848355;29;20052;-92
2022/06/17 04:43:31;;;;;;;12.63;6.60;;;14.80;99.90;;;;;;4850454;29;20626;-92
2022/06/17 04:46:08;;;;;;;11.85;6.32;;;14.80;99.90;;;;;;4865592;29;20076;-92
2022/06/17 04:48:35;;;;;;;11.80;6.60;;;14.90;99.90;;;;;;4863391;29;20053;-92
2022/06/17 04:51:03;;;;;;;12.48;6.07;;;15.00;99.90;;;;;;4863659;29;20061;-91
2022/06/17 04:53:31;;;;;;;9.63;5.72;;;15.00;99.90;;;;;;4847232;29;20494;-91
2022/06/17 04:55:56;;;;;;;8.48;5.50;;;15.00;99.90;;;;;;4848790;29;20065;-92
2022/06/17 04:58:25;;;;;;;8.35;5.70;;;15.10;99.90;;;;;;4848234;29;20056;-92
2022/06/17 05:00:54;;;;;;;15.20;5.28;;;15.10;99.90;;;;;;4847977;29;20041;-92
2022/06/17 05:03:26;;;;;;;9.82;5.70;;;15.20;99.90;;;;;;4850066;29;20103;-91
2022/06/17 05:05:52;;;;;;;17.33;6.20;;;15.20;99.90;;;;;;4851522;29;20067;-92
2022/06/17 05:08:31;;;;;;;10.45;5.88;;;15.20;99.90;;;;;;4865785;29;20553;-92
2022/06/17 05:11:06;;;;;;;9.85;5.50;;;15.20;99.90;;;;;;4866558;29;20520;-92
2022/06/17 05:13:37;;;;;;;13.60;5.65;;;15.10;99.90;;;;;;4866328;29;20049;-92
2022/06/17 05:16:05;;;;;;;10.55;5.38;;;15.10;99.90;;;;;;4867643;29;20052;-92
2022/06/17 05:18:31;;;;;;;12.68;5.40;;;15.10;99.90;;;;;;4868352;29;20052;-92
2022/06/17 05:20:57;;;;;;;11.50;4.95;;;15.10;99.90;;;;;;4866802;29;20072;-92
2022/06/17 05:23:22;;;;;;;9.80;5.30;;;15.10;99.90;;;;;;4868145;29;20111;-92
2022/06/17 05:25:50;;;;;;;9.55;5.30;;;15.10;99.90;;;;;;4866967;29;20048;-92
2022/06/17 05:28:19;;;;;;;10.38;4.85;;;15.00;99.90;;;;;;4867342;29;20052;-92
2022/06/17 05:30:51;;;;;;;9.35;4.90;;;15.10;99.90;;;;;;4868091;29;20044;-91
2022/06/17 05:33:19;;;;;;;6.43;4.30;;;15.10;99.90;;;;;;4866455;29;20136;-92
2022/06/17 05:35:45;;;;;;;13.00;4.82;;;15.10;99.90;;;;;;4866349;29;20057;-92
2022/06/17 05:38:12;;;;;;;7.15;4.32;;;15.20;99.90;;;;;;4865720;29;20056;-91
2022/06/17 05:40:39;;;;;;;8.38;4.50;;;15.30;99.90;;;;;;4866002;29;20053;-92
2022/06/17 05:43:06;;;;;;;10.00;4.72;;;15.30;99.90;;;;;;4854025;29;20157;-92
2022/06/17 05:45:32;;;;;;;10.80;4.38;;;15.40;99.90;;;;;;4846195;29;20509;-92
2022/06/17 05:47:58;;;;;;;14.07;5.03;;;15.40;99.90;;;;;;4847025;29;20041;-91
2022/06/17 05:50:26;;;;;;;6.82;4.57;;;15.50;99.90;;;;;;4845598;29;20057;-91
2022/06/17 05:52:54;;;;;;;10.48;5.18;;;15.60;99.90;;;;;;4848229;29;20088;-92
2022/06/17 05:55:21;;;;;;;8.50;4.40;;;15.60;99.90;;;;;;4846278;29;20045;-92
2022/06/17 05:57:47;;;;;;;8.30;4.53;;;15.70;99.90;;;;;;4846475;29;20087;-92
2022/06/17 06:00:14;;;;;;;11.48;5.13;;;15.80;99.90;;;;;;4846809;29;20462;-91
2022/06/17 06:02:40;;;;;;;13.40;4.80;;;15.90;99.90;;;;;;4846155;29;20048;-91
2022/06/17 06:05:07;;;;;;;11.93;4.55;;;15.90;99.90;;;;;;4845835;29;20469;-92
2022/06/17 06:07:34;;;;;;;10.25;4.82;;;16.00;99.90;;;;;;4846835;29;20080;-92
2022/06/17 06:10:01;;;;;;;9.98;5.50;;;16.10;99.90;;;;;;4845836;29;20065;-92
2022/06/17 06:12:53;;;;;;;8.85;5.00;;;16.10;99.90;;;;;;4848296;29;20520;-92
2022/06/17 06:15:12;;;;;;;14.25;4.40;;;16.20;99.90;;;;;;4861806;29;20093;-92
2022/06/17 06:17:38;;;;;;;9.02;4.90;;;16.20;99.90;;;;;;4847042;29;20088;-92
2022/06/17 06:20:05;;;;;;;12.30;5.50;;;16.20;99.90;;;;;;4846022;29;20136;-91
2022/06/17 06:22:30;;;;;;;8.85;4.57;;;16.30;99.90;;;;;;4847498;29;20051;-92
2022/06/17 06:24:56;;;;;;;12.25;5.32;;;16.30;99.90;;;;;;4847688;29;20063;-92
2022/06/17 06:27:22;;;;;;;9.70;5.18;;;16.40;99.90;;;;;;4845842;29;20505;-91
2022/06/17 06:29:47;;;;;;;8.88;4.45;;;16.40;99.90;;;;;;4845991;29;20056;-92
2022/06/17 06:32:14;;;;;;;11.02;4.70;;;16.50;99.90;;;;;;4855357;29;20055;-91
2022/06/17 06:34:39;;;;;;;9.95;5.13;;;16.50;99.90;;;;;;4864548;29;20056;-92
2022/06/17 06:37:05;;;;;;;13.23;5.43;;;16.60;99.90;;;;;;4864359;29;20097;-92
2022/06/17 06:39:31;;;;;;;17.05;5.38;;;16.70;99.90;;;;;;4864616;29;20048;-92
2022/06/17 06:41:57;;;;;;;10.52;5.18;;;16.80;99.90;;;;;;4866230;29;20040;-92
2022/06/17 06:44:22;;;;;;;8.75;4.75;;;16.80;99.90;;;;;;4866597;29;20067;-91
2022/06/17 06:46:48;;;;;;;10.73;4.43;;;17.00;99.90;;;;;;4865513;29;20052;-91
2022/06/17 06:49:14;;;;;;;8.60;4.70;;;17.10;99.90;;;;;;4864711;29;20067;-92
2022/06/17 06:51:40;;;;;;;10.13;5.13;;;16.90;99.90;;;;;;4863803;29;20516;-92
2022/06/17 06:54:06;;;;;;;10.75;4.63;;;17.30;99.90;;;;;;4865385;29;20552;-92
2022/06/17 06:56:31;;;;;;;12.77;5.25;;;17.40;99.90;;;;;;4864111;29;20486;-92
2022/06/17 06:58:57;;;;;;;10.20;4.65;;;17.50;99.90;;;;;;4864866;29;20473;-92
2022/06/17 07:01:23;;;;;;;12.95;4.55;;;17.70;99.90;;;;;;4865795;29;20048;-92
2022/06/17 07:03:48;;;;;;;8.02;4.03;;;17.80;99.90;;;;;;4864829;29;20485;-92
2022/06/17 07:06:14;;;;;;;12.07;4.63;;;18.00;99.90;;;;;;4856527;29;20041;-93
2022/06/17 07:08:40;;;;;;;8.75;5.00;;;18.10;99.90;;;;;;4845880;29;20057;-91
2022/06/17 07:11:09;;;;;;;8.75;5.00;;;18.20;99.90;;;;;;4845220;29;20041;-92
2022/06/17 07:13:35;;;;;;;13.95;4.85;;;18.30;99.90;;;;;;4844831;29;20049;-92
2022/06/17 07:16:02;;;;;;;11.02;4.70;;;18.40;99.90;;;;;;4847357;29;20053;-92
2022/06/17 07:18:31;;;;;;;7.97;4.75;;;18.50;99.90;;;;;;4845081;29;20100;-93
2022/06/17 07:21:05;;;;;;;11.50;5.00;;;18.50;99.90;;;;;;4846694;29;20552;-94
2022/06/17 07:23:36;;;;;;;11.18;4.70;;;18.50;99.90;;;;;;4845809;29;20041;-95
2022/06/17 07:26:12;;;;;;;6.45;4.50;;;18.50;99.90;;;;;;4845656;29;20052;-94
2022/06/17 07:28:41;;;;;;;9.02;4.95;;;18.50;99.90;;;;;;4844363;29;20093;-91
2022/06/17 07:31:06;;;;;;;10.13;4.43;;;18.60;99.90;;;;;;4843697;29;20045;-90
2022/06/17 07:33:34;;;;;;;9.10;4.10;;;18.70;99.90;;;;;;4843999;29;20148;-88
2022/06/17 07:36:02;;;;;;;11.30;4.72;;;18.80;99.90;;;;;;4846382;29;20059;-91
2022/06/17 07:41:17;;;;;;;8.95;4.38;;;19.00;99.90;;;;;;4866771;29;20076;-89
2022/06/17 07:43:43;;;;;;;9.02;4.68;;;19.10;99.90;;;;;;4857410;29;20056;-87
2022/06/17 07:46:10;;;;;;;10.15;4.90;;;19.20;99.90;;;;;;4857750;29;20059;-88
2022/06/17 07:48:38;;;;;;;11.52;5.20;;;19.40;99.90;;;;;;4859354;29;20057;-89
2022/06/17 07:51:07;;;;;;;9.60;4.35;;;19.60;99.90;;;;;;4855565;29;20047;-89
2022/06/17 07:53:35;;;;;;;9.27;4.95;;;19.90;99.90;;;;;;4853435;29;20053;-89
2022/06/17 07:56:03;;;;;;;9.93;4.63;;;20.10;99.90;;;;;;4867151;29;20057;-89
2022/06/17 07:58:29;;;;;;;12.00;5.20;;;20.30;99.90;;;;;;4858925;29;20112;-88
2022/06/17 08:00:55;;;;;;;7.20;4.30;;;20.50;99.90;;;;;;4863802;29;20064;-90
2022/06/17 08:03:22;;;;;;;8.63;4.75;;;20.60;99.90;;;;;;4854856;29;20056;-89
2022/06/17 08:06:01;;;;;;;6.93;4.32;;;20.70;99.90;;;;;;4847776;29;20053;-91
2022/06/17 08:08:36;;;;;;;8.75;4.15;;;20.80;99.90;;;;;;4844053;29;20049;-92
2022/06/17 08:11:02;;;;;;;8.23;3.90;;;20.90;99.90;;;;;;4847148;29;20107;-92
2022/06/17 08:13:33;;;;;;;13.43;4.50;;;21.00;99.90;;;;;;4844498;29;20057;-93
2022/06/17 08:16:08;;;;;;;6.60;3.83;;;21.10;99.90;;;;;;4844177;29;20693;-92
2022/06/17 08:18:39;;;;;;;8.63;4.18;;;21.40;99.90;;;;;;4845174;29;20594;-93
2022/06/17 08:21:11;;;;;;;9.20;3.72;;;21.40;99.90;;;;;;4844502;29;20049;-92
2022/06/17 08:23:40;;;;;;;9.30;4.20;;;21.30;99.90;;;;;;4844256;29;20053;-91
2022/06/17 08:26:09;;;;;;;11.82;4.07;;;21.30;99.90;;;;;;4845909;29;20049;-92
2022/06/17 08:28:38;;;;;;;8.90;3.97;;;21.40;99.90;;;;;;4848075;29;20037;-92
2022/06/17 08:31:06;;;;;;;10.35;3.88;;;21.50;99.90;;;;;;4846366;29;20046;-91
2022/06/17 08:33:37;;;;;;;9.00;3.55;;;21.60;99.90;;;;;;4844382;29;20897;-92
2022/06/17 08:36:14;;;;;;;7.85;3.67;;;21.80;99.90;;;;;;4843390;29;20521;-91
2022/06/17 08:38:47;;;;;;;8.43;4.20;;;21.80;99.90;;;;;;4843607;29;20053;-92
2022/06/17 08:41:33;;;;;;;11.07;3.78;;;22.00;99.90;;;;;;4843650;29;20057;-92
2022/06/17 08:44:09;;;;;;;10.07;4.28;;;22.10;99.90;;;;;;4843829;29;20049;-92
2022/06/17 08:47:03;;;;;;;10.18;3.78;;;22.10;99.90;;;;;;4861121;29;20116;-92
2022/06/17 08:49:57;;;;;;;10.60;4.07;;;22.10;99.90;;;;;;4858654;29;20387;-92
2022/06/17 08:52:56;;;;;;;8.75;3.92;;;22.20;99.90;;;;;;4843168;29;20144;-92
2022/06/17 08:55:33;;;;;;;7.50;4.05;;;22.20;99.90;;;;;;4844172;29;20064;-92
2022/06/17 08:58:10;;;;;;;9.15;4.10;;;22.20;99.90;;;;;;4846607;29;20037;-92
2022/06/17 09:01:06;;;;;;;10.52;3.90;;;22.10;99.90;;;;;;4844790;29;20121;-92
2022/06/17 09:03:45;;;;;;;5.90;3.70;;;21.90;99.90;;;;;;4843989;29;20382;-92
2022/06/17 09:06:18;;;;;;;7.20;3.72;;;22.00;99.90;;;;;;4847542;29;20055;-93
2022/06/17 09:09:29;;;;;;;7.72;3.90;;;21.90;99.90;;;;;;4859827;29;20254;-92
2022/06/17 09:12:11;;;;;;;8.43;4.20;;;21.90;99.90;;;;;;4859754;29;20049;-92
2022/06/17 09:14:49;;;;;;;10.80;4.20;;;22.00;99.90;;;;;;4860959;29;20131;-92
2022/06/17 09:17:48;;;;;;;12.85;4.57;;;22.00;99.90;;;;;;4858920;29;20099;-93
2022/06/17 09:20:30;;;;;;;12.45;3.90;;;22.10;99.90;;;;;;4858266;29;20056;-92
2022/06/17 09:23:03;;;;;;;10.55;4.68;;;22.20;99.90;;;;;;4868026;29;20053;-92
2022/06/17 09:25:38;;;;;;;10.15;4.40;;;22.10;99.90;;;;;;4862697;29;20048;-89
2022/06/17 09:28:08;;;;;;;12.52;4.75;;;22.20;99.90;;;;;;4855875;29;20127;-89
2022/06/17 09:30:42;;;;;;;13.77;4.60;;;22.20;99.90;;;;;;4857800;29;20051;-89
2022/06/17 09:33:14;;;;;;;13.30;4.72;;;22.20;99.90;;;;;;4854580;29;20104;-89
2022/06/17 09:35:53;;;;;;;13.82;4.85;;;22.30;99.90;;;;;;4848475;29;20115;-88
2022/06/17 09:38:33;;;;;;;8.90;4.20;;;22.30;99.90;;;;;;4876136;29;20449;-89
2022/06/17 09:41:06;;;;;;;17.17;4.57;;;22.30;99.90;;;;;;4864316;29;20103;-89
2022/06/17 09:43:39;;;;;;;14.77;4.07;;;22.40;99.90;;;;;;4871254;29;20046;-89
2022/06/17 09:46:17;;;;;;;12.68;4.55;;;22.80;99.90;;;;;;4864629;29;20541;-89
2022/06/17 09:48:56;;;;;;;12.35;4.10;;;23.20;99.90;;;;;;4857411;29;20081;-89
2022/06/17 09:51:35;;;;;;;9.05;3.92;;;23.60;99.90;;;;;;4864842;29;20013;-90
2022/06/17 09:54:16;;;;;;;7.55;3.88;;;24.00;99.90;;;;;;4876627;29;20056;-89
2022/06/17 09:56:53;;;;;;;7.90;4.18;;;24.10;99.90;;;;;;4868250;29;20994;-90
2022/06/17 09:59:26;;;;;;;10.32;4.30;;;24.20;99.90;;;;;;4846424;29;20049;-89
2022/06/17 10:01:54;;;;;;;9.75;4.00;;;24.10;99.90;;;;;;4859944;29;20044;-89
2022/06/17 10:04:20;;;;;;;9.82;4.28;;;23.90;99.90;;;;;;4865076;29;20163;-89
2022/06/17 10:07:01;;;;;;;7.50;3.38;;;23.80;99.90;;;;;;4854535;29;20049;-88
2022/06/17 10:09:33;;;;;;;14.50;4.43;;;23.60;99.90;;;;;;4858384;29;20084;-89
2022/06/17 10:12:13;;;;;;;11.45;3.97;;;23.50;99.90;;;;;;4865743;29;20059;-89
2022/06/17 10:15:08;;;;;;;10.60;4.03;;;23.40;99.90;;;;;;4864024;29;20051;-89
2022/06/17 10:20:49;;;;;;;17.83;3.78;;;23.30;99.90;;;;;;4862117;29;20049;-89
2022/06/17 10:23:47;;;;;;;9.68;3.42;;;23.20;99.90;;;;;;4867154;29;20041;-89
2022/06/17 10:26:28;;;;;;;10.45;4.18;;;23.10;99.90;;;;;;4862088;29;20147;-89
2022/06/17 10:29:09;;;;;;;6.28;3.13;;;23.10;99.90;;;;;;4885577;29;20036;-89
2022/06/17 10:31:39;;;;;;;14.00;3.38;;;23.00;99.90;;;;;;4851571;29;20053;-89
2022/06/17 10:34:14;;;;;;;8.60;3.08;;;23.00;99.90;;;;;;4846025;29;20056;-89
2022/06/17 10:36:41;;;;;;;12.48;3.35;;;23.00;99.90;;;;;;4854871;29;20055;-88
2022/06/17 10:39:10;;;;;;;6.90;2.72;;;22.90;99.90;;;;;;4846795;29;20124;-89
2022/06/17 10:41:36;;;;;;;9.95;3.35;;;22.90;99.90;;;;;;4849666;29;20049;-89
2022/06/17 10:44:03;;;;;;;12.00;3.30;;;23.00;99.90;;;;;;4863193;29;20576;-89
2022/06/17 10:46:39;;;;;;;6.03;3.00;;;23.00;99.90;;;;;;4871633;29;20048;-89
2022/06/17 10:49:09;;;;;;;12.10;3.15;;;23.20;99.90;;;;;;4856110;29;20096;-89
2022/06/17 10:51:36;;;;;;;9.30;3.08;;;23.30;99.90;;;;;;4856487;29;20044;-89
2022/06/17 10:54:13;;;;;;;8.32;3.13;;;23.50;99.90;;;;;;4853969;29;20056;-89
2022/06/17 10:56:47;;;;;;;11.13;2.78;;;23.80;99.90;;;;;;4858774;29;20041;-89
2022/06/17 10:59:13;;;;;;;6.45;2.35;;;24.00;99.90;;;;;;4859470;29;20116;-89
2022/06/17 11:01:45;;;;;;;7.15;2.85;;;24.20;99.90;;;;;;4865401;29;20048;-90
2022/06/17 11:04:27;;;;;;;7.72;2.95;;;24.30;99.90;;;;;;4860417;29;20139;-89
2022/06/17 11:07:06;;;;;;;8.13;3.65;;;24.30;99.90;;;;;;4869804;29;20063;-89
2022/06/17 11:09:40;;;;;;;12.57;3.20;;;24.40;99.90;;;;;;4863955;29;20092;-89
2022/06/17 11:12:19;;;;;;;8.88;2.67;;;24.40;99.90;;;;;;4861936;29;20497;-88
2022/06/17 11:14:45;;;;;;;7.13;2.50;;;24.50;99.90;;;;;;4864735;29;20052;-89
2022/06/17 11:17:29;;;;;;;10.85;3.08;;;24.60;99.90;;;;;;4880150;29;20112;-89
2022/06/17 11:19:57;;;;;;;9.55;3.20;;;24.70;99.90;;;;;;4862145;29;20098;-89
2022/06/17 11:22:34;;;;;;;7.03;2.88;;;24.70;99.90;;;;;;4858565;29;20049;-89
2022/06/17 11:25:06;;;;;;;6.65;2.75;;;24.70;99.90;;;;;;4857958;29;20091;-89
2022/06/17 11:27:41;;;;;;;6.83;3.17;;;24.80;99.90;;;;;;4844191;29;20155;-89
2022/06/17 11:30:17;;;;;;;9.10;3.00;;;24.90;99.90;;;;;;4849928;29;20136;-89
2022/06/17 11:32:45;;;;;;;9.95;3.10;;;25.00;99.90;;;;;;4861388;29;20059;-89
2022/06/17 11:35:20;;;;;;;10.57;3.38;;;25.10;99.90;;;;;;4843677;29;20045;-89
2022/06/17 11:37:48;;;;;;;10.15;3.42;;;25.20;99.90;;;;;;4851275;29;20105;-89
2022/06/17 11:40:17;;;;;;;19.98;4.00;;;25.30;99.90;;;;;;4873941;29;20558;-89
2022/06/17 11:42:47;;;;;;;8.80;3.22;;;25.50;99.90;;;;;;4861956;29;20079;-89
2022/06/17 11:45:18;;;;;;;10.80;3.30;;;25.50;99.90;;;;;;4854701;29;20524;-89
2022/06/17 11:47:49;;;;;;;8.82;3.38;;;25.60;99.90;;;;;;4851940;29;20048;-89
2022/06/17 11:50:20;;;;;;;11.27;3.58;;;25.70;99.90;;;;;;4857091;29;20056;-90
2022/06/17 11:52:47;;;;;;;10.30;3.50;;;25.80;99.90;;;;;;4866866;29;20080;-89
2022/06/17 11:55:13;;;;;;;13.50;3.75;;;25.90;99.90;;;;;;4859317;29;20053;-89
2022/06/17 11:57:41;;;;;;;12.43;3.20;;;26.10;99.90;;;;;;4869547;29;20044;-89
2022/06/17 12:00:22;;;;;;;10.25;3.60;;;26.30;99.90;;;;;;4870843;29;20505;-89
2022/06/17 12:03:00;;;;;;;8.43;3.67;;;26.50;99.90;;;;;;4856702;29;20055;-89
2022/06/17 12:05:30;;;;;;;7.22;3.50;;;26.60;99.90;;;;;;4845571;29;20064;-90
2022/06/17 12:08:08;;;;;;;8.38;3.17;;;26.60;99.90;;;;;;4873295;29;20053;-90
2022/06/17 12:10:47;;;;;;;13.23;3.58;;;26.60;99.70;;;;;;4861047;29;20048;-89
2022/06/17 12:13:22;;;;;;;17.15;3.80;;;26.70;99.90;;;;;;4861645;29;20044;-90
2022/06/17 12:15:48;;;;;;;8.32;2.70;;;26.70;99.90;;;;;;4856482;29;20117;-90
2022/06/17 12:18:26;;;;;;;10.52;3.28;;;26.70;99.90;;;;;;4869146;29;20143;-90
2022/06/17 12:21:16;;;;;;;8.07;2.78;;;26.60;99.50;;;;;;4875727;29;20044;-88
2022/06/17 12:23:50;;;;;;;9.55;2.67;;;26.60;99.00;;;;;;4866571;29;20085;-89
2022/06/17 12:26:25;;;;;;;11.00;2.83;;;26.70;99.90;;;;;;4867828;29;20052;-88
2022/06/17 12:29:01;;;;;;;6.40;2.58;;;26.80;97.40;;;;;;4848410;29;20066;-88
2022/06/17 12:31:40;;;;;;;9.13;2.65;;;27.00;96.40;;;;;;4858546;29;20087;-89
2022/06/17 12:34:11;;;;;;;11.55;3.05;;;27.00;96.30;;;;;;4867174;29;20088;-90
2022/06/17 12:36:51;;;;;;;7.38;2.38;;;27.10;96.40;;;;;;4862591;29;20045;-91
2022/06/17 12:39:35;;;;;;;10.63;2.70;;;27.20;95.30;;;;;;4851093;29;20135;-89
2022/06/17 12:42:04;;;;;;;7.40;2.63;;;27.10;93.40;;;;;;4862504;29;20068;-90
2022/06/17 12:44:41;;;;;;;8.48;2.50;;;27.00;93.80;;;;;;4858768;29;20052;-91
2022/06/17 12:47:20;;;;;;;10.40;2.40;;;26.90;92.40;;;;;;4853059;29;20061;-90
2022/06/17 12:53:18;;;;;;;6.40;2.47;;;26.80;92.20;;;;;;4871894;29;20049;-91
2022/06/17 12:55:57;;;;;;;8.02;2.22;;;26.80;92.20;;;;;;4865142;29;20589;-89
2022/06/17 12:58:48;;;;;;;8.23;2.25;;;26.90;92.80;;;;;;4873137;29;20064;-90
2022/06/17 13:01:22;;;;;;;7.88;2.92;;;26.90;93.30;;;;;;4862387;29;20116;-90
2022/06/17 13:04:13;;;;;;;14.35;2.58;;;26.70;92.60;;;;;;4856191;29;20104;-89
2022/06/17 13:07:02;;;;;;;8.65;2.80;;;26.60;93.00;;;;;;4855343;29;20112;-90
2022/06/17 13:09:30;;;;;;;6.88;2.60;;;26.50;93.30;;;;;;4877151;29;20509;-90